Marco Polo — C6JZ7 — position and weather

sailwx.info

Track history (hours):
 
Tides and Currents Weather Stations Pressure Air Temp Water Temp Dewpoint Dewpoint Depression Visibility Wind Speed Wind Dir Waves Ship Positions

Marco Polo

Operator: Orient Lines

Last reported at 2015-Mar-02 10:34 UTC. Time now 2015-Mar-02 11:10 UTC.
Position N 51°27' E 000°22'.

Type: Ship. MMSI: 308691456.

Date/timePositionNaut miles runAvg speedWind from/ knotsBaromVisibWave heightAir tempDewpointWater temp
2015-Mar-02 10:34N 51°27' E 000°22'7 6.5
2015-Mar-02 09:33N 51°30' E 000°31'1918.6
2015-Mar-02 08:34N 51°30' E 001°01'1919.1
2015-Mar-02 07:33N 51°41' E 001°26'1514.5
2015-Mar-02 06:33N 51°52' E 001°42'1817.7
2015-Mar-02 05:34N 52°07' E 001°56'  
2015-Feb-23 21:34N 70°43' E 023°34'9 9.1
2015-Feb-23 20:33N 70°34' E 023°37'112 2.3
2015-Feb-21 19:26N 69°38' E 018°53'2 2.0
2015-Feb-21 18:33N 69°39' E 018°58'0 0.0
2015-Feb-21 17:33N 69°39' E 018°58'0 0.0
2015-Feb-21 16:33N 69°39' E 018°58'0 0.0
2015-Feb-21 15:33N 69°39' E 018°58'0 0.0
2015-Feb-21 14:33N 69°39' E 018°58'0 0.0
2015-Feb-21 13:33N 69°39' E 018°58'0 0.0
2015-Feb-21 12:33N 69°39' E 018°58'0 0.0
2015-Feb-21 11:33N 69°39' E 018°58'0 0.0
2015-Feb-21 10:33N 69°39' E 018°58'0 0.0
2015-Feb-21 09:33N 69°39' E 018°58'18412.2
2015-Feb-20 18:26N 67°11' E 014°01'1513.6
2015-Feb-20 17:19N 66°58' E 013°38'31 6.5
2015-Feb-20 12:31N 66°32' E 012°57'1515.0
2015-Feb-20 11:31N 66°18' E 012°44'  
Track history (hours):
 
Tides and Currents Weather Stations Pressure Air Temp Water Temp Dewpoint Dewpoint Depression Visibility Wind Speed Wind Dir Waves Ship Positions

Marco Polo

Operator: Orient Lines

Last reported at 2015-Mar-02 10:34 UTC. Time now 2015-Mar-02 11:10 UTC.
Position N 51°27' E 000°22'.

Type: Ship. MMSI: 308691456.

Date/timePositionNaut miles runAvg speedWind from/ knotsBaromVisibWave heightAir tempDewpointWater temp
2015-Mar-02 10:34N 51°27' E 000°22'7 6.5
2015-Mar-02 09:33N 51°30' E 000°31'1918.6
2015-Mar-02 08:34N 51°30' E 001°01'1919.1
2015-Mar-02 07:33N 51°41' E 001°26'1514.5
2015-Mar-02 06:33N 51°52' E 001°42'1817.7
2015-Mar-02 05:34N 52°07' E 001°56'  
2015-Feb-23 21:34N 70°43' E 023°34'9 9.1
2015-Feb-23 20:33N 70°34' E 023°37'112 2.3
2015-Feb-21 19:26N 69°38' E 018°53'2 2.0
2015-Feb-21 18:33N 69°39' E 018°58'0 0.0
2015-Feb-21 17:33N 69°39' E 018°58'0 0.0
2015-Feb-21 16:33N 69°39' E 018°58'0 0.0
2015-Feb-21 15:33N 69°39' E 018°58'0 0.0
2015-Feb-21 14:33N 69°39' E 018°58'0 0.0
2015-Feb-21 13:33N 69°39' E 018°58'0 0.0
2015-Feb-21 12:33N 69°39' E 018°58'0 0.0
2015-Feb-21 11:33N 69°39' E 018°58'0 0.0
2015-Feb-21 10:33N 69°39' E 018°58'0 0.0
2015-Feb-21 09:33N 69°39' E 018°58'18412.2
2015-Feb-20 18:26N 67°11' E 014°01'1513.6
2015-Feb-20 17:19N 66°58' E 013°38'31 6.5
2015-Feb-20 12:31N 66°32' E 012°57'1515.0
2015-Feb-20 11:31N 66°18' E 012°44'  

Dump ship's entire track history